sensor_id;sensor_type;location;lat;lon;timestamp;P1;durP1;ratioP1;P2;durP2;ratioP2
80425;SDS011;69766;51.476;5.704;2023-11-21T00:00:33;37.08;;;17.83;;
80425;SDS011;69766;51.476;5.704;2023-11-21T00:03:00;40.47;;;19.85;;
80425;SDS011;69766;51.476;5.704;2023-11-21T00:05:26;41.28;;;18.88;;
80425;SDS011;69766;51.476;5.704;2023-11-21T00:07:51;44.55;;;20.27;;
80425;SDS011;69766;51.476;5.704;2023-11-21T00:10:20;40.28;;;18.27;;
80425;SDS011;69766;51.476;5.704;2023-11-21T00:12:46;48.40;;;20.27;;
80425;SDS011;69766;51.476;5.704;2023-11-21T00:15:25;38.83;;;18.80;;
80425;SDS011;69766;51.476;5.704;2023-11-21T00:17:54;40.50;;;20.40;;
80425;SDS011;69766;51.476;5.704;2023-11-21T00:20:20;40.90;;;17.95;;
80425;SDS011;69766;51.476;5.704;2023-11-21T00:22:47;40.75;;;18.77;;
80425;SDS011;69766;51.476;5.704;2023-11-21T00:25:13;42.35;;;18.80;;
80425;SDS011;69766;51.476;5.704;2023-11-21T00:27:42;45.97;;;20.20;;
80425;SDS011;69766;51.476;5.704;2023-11-21T00:30:11;39.72;;;18.65;;
80425;SDS011;69766;51.476;5.704;2023-11-21T00:32:46;45.22;;;19.65;;
80425;SDS011;69766;51.476;5.704;2023-11-21T00:35:12;38.85;;;19.35;;
80425;SDS011;69766;51.476;5.704;2023-11-21T00:37:38;35.55;;;17.83;;
80425;SDS011;69766;51.476;5.704;2023-11-21T00:40:07;43.30;;;19.67;;
80425;SDS011;69766;51.476;5.704;2023-11-21T00:42:37;40.22;;;18.00;;
80425;SDS011;69766;51.476;5.704;2023-11-21T00:45:06;35.65;;;18.73;;
80425;SDS011;69766;51.476;5.704;2023-11-21T00:47:32;37.20;;;18.20;;
80425;SDS011;69766;51.476;5.704;2023-11-21T00:49:58;41.00;;;18.67;;
80425;SDS011;69766;51.476;5.704;2023-11-21T00:52:24;35.78;;;17.52;;
80425;SDS011;69766;51.476;5.704;2023-11-21T00:54:52;32.75;;;16.73;;
80425;SDS011;69766;51.476;5.704;2023-11-21T00:57:18;42.72;;;18.10;;
80425;SDS011;69766;51.476;5.704;2023-11-21T00:59:50;40.08;;;18.80;;
80425;SDS011;69766;51.476;5.704;2023-11-21T01:02:18;36.55;;;18.25;;
80425;SDS011;69766;51.476;5.704;2023-11-21T01:04:50;34.55;;;17.38;;
80425;SDS011;69766;51.476;5.704;2023-11-21T01:07:17;42.88;;;18.80;;
80425;SDS011;69766;51.476;5.704;2023-11-21T01:09:45;37.30;;;18.58;;
80425;SDS011;69766;51.476;5.704;2023-11-21T01:12:17;36.78;;;18.98;;
80425;SDS011;69766;51.476;5.704;2023-11-21T01:14:42;40.15;;;17.92;;
80425;SDS011;69766;51.476;5.704;2023-11-21T01:17:26;41.97;;;19.65;;
80425;SDS011;69766;51.476;5.704;2023-11-21T01:20:01;37.75;;;18.83;;
80425;SDS011;69766;51.476;5.704;2023-11-21T01:22:46;43.80;;;19.38;;
80425;SDS011;69766;51.476;5.704;2023-11-21T01:25:26;51.67;;;20.90;;
80425;SDS011;69766;51.476;5.704;2023-11-21T01:28:17;54.03;;;20.90;;
80425;SDS011;69766;51.476;5.704;2023-11-21T01:30:43;50.15;;;21.58;;
80425;SDS011;69766;51.476;5.704;2023-11-21T01:33:09;49.42;;;21.08;;
80425;SDS011;69766;51.476;5.704;2023-11-21T01:35:35;45.85;;;21.67;;
80425;SDS011;69766;51.476;5.704;2023-11-21T01:38:01;46.28;;;21.35;;
80425;SDS011;69766;51.476;5.704;2023-11-21T01:40:26;51.67;;;22.13;;
80425;SDS011;69766;51.476;5.704;2023-11-21T01:42:53;45.13;;;21.75;;
80425;SDS011;69766;51.476;5.704;2023-11-21T01:45:19;44.65;;;21.05;;
80425;SDS011;69766;51.476;5.704;2023-11-21T01:47:50;50.03;;;21.52;;
80425;SDS011;69766;51.476;5.704;2023-11-21T01:50:16;52.45;;;21.15;;
80425;SDS011;69766;51.476;5.704;2023-11-21T01:52:43;44.60;;;20.38;;
80425;SDS011;69766;51.476;5.704;2023-11-21T01:55:14;44.78;;;20.40;;
80425;SDS011;69766;51.476;5.704;2023-11-21T01:57:55;47.33;;;21.50;;
80425;SDS011;69766;51.476;5.704;2023-11-21T02:00:34;42.40;;;19.65;;
80425;SDS011;69766;51.476;5.704;2023-11-21T02:02:59;52.03;;;22.52;;
80425;SDS011;69766;51.476;5.704;2023-11-21T02:05:26;48.53;;;21.23;;
80425;SDS011;69766;51.476;5.704;2023-11-21T02:07:52;54.97;;;23.52;;
80425;SDS011;69766;51.476;5.704;2023-11-21T02:10:18;48.78;;;21.13;;
80425;SDS011;69766;51.476;5.704;2023-11-21T02:12:48;50.13;;;22.48;;
80425;SDS011;69766;51.476;5.704;2023-11-21T02:15:15;45.33;;;22.08;;
80425;SDS011;69766;51.476;5.704;2023-11-21T02:17:57;39.80;;;19.70;;
80425;SDS011;69766;51.476;5.704;2023-11-21T02:20:27;46.50;;;20.95;;
80425;SDS011;69766;51.476;5.704;2023-11-21T02:22:57;44.20;;;21.17;;
80425;SDS011;69766;51.476;5.704;2023-11-21T02:25:33;47.88;;;22.05;;
80425;SDS011;69766;51.476;5.704;2023-11-21T02:28:02;44.67;;;21.63;;
80425;SDS011;69766;51.476;5.704;2023-11-21T02:30:36;48.10;;;23.35;;
80425;SDS011;69766;51.476;5.704;2023-11-21T02:33:02;49.75;;;22.00;;
80425;SDS011;69766;51.476;5.704;2023-11-21T02:35:32;53.13;;;22.83;;
80425;SDS011;69766;51.476;5.704;2023-11-21T02:37:58;54.05;;;26.10;;
80425;SDS011;69766;51.476;5.704;2023-11-21T02:40:31;51.83;;;23.65;;
80425;SDS011;69766;51.476;5.704;2023-11-21T02:42:57;62.80;;;25.85;;
80425;SDS011;69766;51.476;5.704;2023-11-21T02:45:24;65.10;;;25.58;;
80425;SDS011;69766;51.476;5.704;2023-11-21T02:47:49;67.60;;;24.50;;
80425;SDS011;69766;51.476;5.704;2023-11-21T02:50:15;65.55;;;26.13;;
80425;SDS011;69766;51.476;5.704;2023-11-21T02:52:44;73.65;;;25.48;;
80425;SDS011;69766;51.476;5.704;2023-11-21T02:55:16;93.38;;;28.08;;
80425;SDS011;69766;51.476;5.704;2023-11-21T02:57:45;85.88;;;28.55;;
80425;SDS011;69766;51.476;5.704;2023-11-21T03:00:14;89.60;;;28.45;;
80425;SDS011;69766;51.476;5.704;2023-11-21T03:02:44;81.35;;;29.30;;
80425;SDS011;69766;51.476;5.704;2023-11-21T03:05:12;86.00;;;29.15;;
80425;SDS011;69766;51.476;5.704;2023-11-21T03:07:41;76.88;;;27.67;;
80425;SDS011;69766;51.476;5.704;2023-11-21T03:10:10;111.03;;;31.77;;
80425;SDS011;69766;51.476;5.704;2023-11-21T03:12:39;87.57;;;30.15;;
80425;SDS011;69766;51.476;5.704;2023-11-21T03:15:06;82.85;;;28.45;;
80425;SDS011;69766;51.476;5.704;2023-11-21T03:17:35;97.03;;;30.10;;
80425;SDS011;69766;51.476;5.704;2023-11-21T03:20:01;74.88;;;29.15;;
80425;SDS011;69766;51.476;5.704;2023-11-21T03:22:31;86.88;;;33.55;;
80425;SDS011;69766;51.476;5.704;2023-11-21T03:25:07;92.13;;;29.75;;
80425;SDS011;69766;51.476;5.704;2023-11-21T03:27:36;84.20;;;29.98;;
80425;SDS011;69766;51.476;5.704;2023-11-21T03:30:02;97.10;;;31.38;;
80425;SDS011;69766;51.476;5.704;2023-11-21T03:32:28;78.18;;;29.70;;
80425;SDS011;69766;51.476;5.704;2023-11-21T03:35:01;80.07;;;30.23;;
80425;SDS011;69766;51.476;5.704;2023-11-21T03:37:27;85.05;;;29.92;;
80425;SDS011;69766;51.476;5.704;2023-11-21T03:39:54;93.68;;;28.83;;
80425;SDS011;69766;51.476;5.704;2023-11-21T03:42:22;88.03;;;28.05;;
80425;SDS011;69766;51.476;5.704;2023-11-21T03:44:55;97.03;;;30.58;;
80425;SDS011;69766;51.476;5.704;2023-11-21T03:47:23;91.43;;;28.45;;
80425;SDS011;69766;51.476;5.704;2023-11-21T03:50:02;90.90;;;29.30;;
80425;SDS011;69766;51.476;5.704;2023-11-21T03:52:31;113.72;;;30.02;;
80425;SDS011;69766;51.476;5.704;2023-11-21T03:54:56;101.32;;;28.85;;
80425;SDS011;69766;51.476;5.704;2023-11-21T03:57:25;75.85;;;30.02;;
80425;SDS011;69766;51.476;5.704;2023-11-21T03:59:51;70.97;;;28.20;;
80425;SDS011;69766;51.476;5.704;2023-11-21T04:02:17;89.93;;;28.30;;
80425;SDS011;69766;51.476;5.704;2023-11-21T04:04:43;89.78;;;30.70;;
80425;SDS011;69766;51.476;5.704;2023-11-21T04:07:12;80.13;;;28.15;;
80425;SDS011;69766;51.476;5.704;2023-11-21T04:09:41;75.60;;;27.55;;
80425;SDS011;69766;51.476;5.704;2023-11-21T04:12:09;93.43;;;28.17;;
80425;SDS011;69766;51.476;5.704;2023-11-21T04:14:41;65.97;;;27.17;;
80425;SDS011;69766;51.476;5.704;2023-11-21T04:17:07;63.00;;;25.52;;
80425;SDS011;69766;51.476;5.704;2023-11-21T04:19:32;77.03;;;26.70;;
80425;SDS011;69766;51.476;5.704;2023-11-21T04:22:01;84.97;;;27.60;;
80425;SDS011;69766;51.476;5.704;2023-11-21T04:24:29;78.00;;;25.77;;
80425;SDS011;69766;51.476;5.704;2023-11-21T04:26:55;76.63;;;26.70;;
80425;SDS011;69766;51.476;5.704;2023-11-21T04:29:20;79.68;;;27.80;;
80425;SDS011;69766;51.476;5.704;2023-11-21T04:31:46;99.18;;;29.20;;
80425;SDS011;69766;51.476;5.704;2023-11-21T04:34:14;77.55;;;28.33;;
80425;SDS011;69766;51.476;5.704;2023-11-21T04:36:40;96.03;;;29.70;;
80425;SDS011;69766;51.476;5.704;2023-11-21T04:39:06;92.03;;;28.85;;
80425;SDS011;69766;51.476;5.704;2023-11-21T04:41:32;99.70;;;30.52;;
80425;SDS011;69766;51.476;5.704;2023-11-21T04:43:57;84.75;;;29.35;;
80425;SDS011;69766;51.476;5.704;2023-11-21T04:46:25;94.28;;;29.17;;
80425;SDS011;69766;51.476;5.704;2023-11-21T04:48:54;78.07;;;29.52;;
80425;SDS011;69766;51.476;5.704;2023-11-21T04:51:30;78.90;;;27.65;;
80425;SDS011;69766;51.476;5.704;2023-11-21T04:54:00;96.78;;;28.92;;
80425;SDS011;69766;51.476;5.704;2023-11-21T04:56:26;87.60;;;30.23;;
80425;SDS011;69766;51.476;5.704;2023-11-21T04:58:54;98.03;;;28.77;;
80425;SDS011;69766;51.476;5.704;2023-11-21T05:01:26;98.22;;;29.50;;
80425;SDS011;69766;51.476;5.704;2023-11-21T05:04:04;95.07;;;29.02;;
80425;SDS011;69766;51.476;5.704;2023-11-21T05:10:01;85.00;;;29.08;;
80425;SDS011;69766;51.476;5.704;2023-11-21T05:12:37;98.95;;;29.73;;
80425;SDS011;69766;51.476;5.704;2023-11-21T05:15:03;86.47;;;29.77;;
80425;SDS011;69766;51.476;5.704;2023-11-21T05:17:37;75.70;;;29.02;;
80425;SDS011;69766;51.476;5.704;2023-11-21T05:20:07;90.97;;;27.92;;
80425;SDS011;69766;51.476;5.704;2023-11-21T05:22:35;78.10;;;28.77;;
80425;SDS011;69766;51.476;5.704;2023-11-21T05:28:02;68.15;;;29.13;;
80425;SDS011;69766;51.476;5.704;2023-11-21T05:30:45;71.97;;;27.15;;
80425;SDS011;69766;51.476;5.704;2023-11-21T05:33:24;64.75;;;27.38;;
80425;SDS011;69766;51.476;5.704;2023-11-21T05:35:55;69.78;;;26.42;;
80425;SDS011;69766;51.476;5.704;2023-11-21T05:38:30;68.88;;;28.45;;
80425;SDS011;69766;51.476;5.704;2023-11-21T05:40:56;66.03;;;26.70;;
80425;SDS011;69766;51.476;5.704;2023-11-21T05:43:23;68.65;;;26.92;;
80425;SDS011;69766;51.476;5.704;2023-11-21T05:46:07;66.25;;;26.88;;
80425;SDS011;69766;51.476;5.704;2023-11-21T05:48:36;71.18;;;27.50;;
80425;SDS011;69766;51.476;5.704;2023-11-21T05:51:10;66.55;;;25.40;;
80425;SDS011;69766;51.476;5.704;2023-11-21T05:53:42;69.30;;;26.88;;
80425;SDS011;69766;51.476;5.704;2023-11-21T05:56:24;63.15;;;26.17;;
80425;SDS011;69766;51.476;5.704;2023-11-21T05:59:00;65.28;;;26.67;;
80425;SDS011;69766;51.476;5.704;2023-11-21T06:01:26;59.17;;;26.67;;
80425;SDS011;69766;51.476;5.704;2023-11-21T06:03:53;60.85;;;26.38;;
80425;SDS011;69766;51.476;5.704;2023-11-21T06:06:22;68.78;;;27.48;;
80425;SDS011;69766;51.476;5.704;2023-11-21T06:08:49;55.75;;;24.45;;
80425;SDS011;69766;51.476;5.704;2023-11-21T06:11:21;67.38;;;26.38;;
80425;SDS011;69766;51.476;5.704;2023-11-21T06:13:47;66.85;;;27.13;;
80425;SDS011;69766;51.476;5.704;2023-11-21T06:16:16;68.47;;;27.38;;
80425;SDS011;69766;51.476;5.704;2023-11-21T06:18:50;65.28;;;27.80;;
80425;SDS011;69766;51.476;5.704;2023-11-21T06:21:16;63.85;;;28.88;;
80425;SDS011;69766;51.476;5.704;2023-11-21T06:23:52;64.15;;;27.38;;
80425;SDS011;69766;51.476;5.704;2023-11-21T06:26:18;68.28;;;27.83;;
80425;SDS011;69766;51.476;5.704;2023-11-21T06:28:53;74.60;;;28.38;;
80425;SDS011;69766;51.476;5.704;2023-11-21T06:31:19;68.50;;;27.75;;
80425;SDS011;69766;51.476;5.704;2023-11-21T06:33:50;63.58;;;26.30;;
80425;SDS011;69766;51.476;5.704;2023-11-21T06:36:35;63.72;;;26.35;;
80425;SDS011;69766;51.476;5.704;2023-11-21T06:39:18;66.68;;;28.35;;
80425;SDS011;69766;51.476;5.704;2023-11-21T06:45:13;67.70;;;28.30;;
80425;SDS011;69766;51.476;5.704;2023-11-21T06:47:40;74.32;;;27.42;;
80425;SDS011;69766;51.476;5.704;2023-11-21T06:50:13;76.85;;;29.60;;
80425;SDS011;69766;51.476;5.704;2023-11-21T06:53:02;66.00;;;27.23;;
80425;SDS011;69766;51.476;5.704;2023-11-21T06:55:34;77.35;;;27.83;;
80425;SDS011;69766;51.476;5.704;2023-11-21T06:58:03;68.82;;;26.58;;
80425;SDS011;69766;51.476;5.704;2023-11-21T07:00:30;71.05;;;29.08;;
80425;SDS011;69766;51.476;5.704;2023-11-21T07:03:04;74.95;;;27.55;;
80425;SDS011;69766;51.476;5.704;2023-11-21T07:05:36;73.03;;;27.85;;
80425;SDS011;69766;51.476;5.704;2023-11-21T07:08:08;71.05;;;27.17;;
80425;SDS011;69766;51.476;5.704;2023-11-21T07:10:34;77.32;;;26.55;;
80425;SDS011;69766;51.476;5.704;2023-11-21T07:13:07;72.57;;;28.20;;
80425;SDS011;69766;51.476;5.704;2023-11-21T07:15:37;78.32;;;27.27;;
80425;SDS011;69766;51.476;5.704;2023-11-21T07:18:15;74.57;;;26.63;;
80425;SDS011;69766;51.476;5.704;2023-11-21T07:20:50;80.68;;;28.00;;
80425;SDS011;69766;51.476;5.704;2023-11-21T07:23:16;77.78;;;28.83;;
80425;SDS011;69766;51.476;5.704;2023-11-21T07:25:42;75.65;;;28.05;;
80425;SDS011;69766;51.476;5.704;2023-11-21T07:28:08;82.13;;;30.95;;
80425;SDS011;69766;51.476;5.704;2023-11-21T07:30:34;81.10;;;30.77;;
80425;SDS011;69766;51.476;5.704;2023-11-21T07:33:00;75.82;;;30.58;;
80425;SDS011;69766;51.476;5.704;2023-11-21T07:35:26;86.18;;;32.42;;
80425;SDS011;69766;51.476;5.704;2023-11-21T07:37:51;77.90;;;31.20;;
80425;SDS011;69766;51.476;5.704;2023-11-21T07:40:17;81.75;;;31.33;;
80425;SDS011;69766;51.476;5.704;2023-11-21T07:42:43;81.45;;;30.05;;
80425;SDS011;69766;51.476;5.704;2023-11-21T07:45:21;87.55;;;30.50;;
80425;SDS011;69766;51.476;5.704;2023-11-21T07:47:50;88.80;;;31.05;;
80425;SDS011;69766;51.476;5.704;2023-11-21T07:50:16;98.47;;;31.83;;
80425;SDS011;69766;51.476;5.704;2023-11-21T07:55:57;85.10;;;30.08;;
80425;SDS011;69766;51.476;5.704;2023-11-21T07:58:30;79.13;;;29.05;;
80425;SDS011;69766;51.476;5.704;2023-11-21T08:01:07;80.90;;;28.35;;
80425;SDS011;69766;51.476;5.704;2023-11-21T08:03:36;84.40;;;27.38;;
80425;SDS011;69766;51.476;5.704;2023-11-21T08:06:05;78.85;;;26.95;;
80425;SDS011;69766;51.476;5.704;2023-11-21T08:08:31;81.35;;;28.00;;
80425;SDS011;69766;51.476;5.704;2023-11-21T08:11:06;72.70;;;27.38;;
80425;SDS011;69766;51.476;5.704;2023-11-21T08:13:36;79.28;;;28.92;;
80425;SDS011;69766;51.476;5.704;2023-11-21T08:16:01;70.75;;;26.25;;
80425;SDS011;69766;51.476;5.704;2023-11-21T08:18:36;72.65;;;27.65;;
80425;SDS011;69766;51.476;5.704;2023-11-21T08:21:54;71.07;;;27.17;;
80425;SDS011;69766;51.476;5.704;2023-11-21T08:24:06;60.58;;;24.83;;
80425;SDS011;69766;51.476;5.704;2023-11-21T08:26:38;65.13;;;25.92;;
80425;SDS011;69766;51.476;5.704;2023-11-21T08:29:10;58.00;;;23.02;;
80425;SDS011;69766;51.476;5.704;2023-11-21T08:31:47;60.50;;;24.38;;
80425;SDS011;69766;51.476;5.704;2023-11-21T08:34:33;60.47;;;25.25;;
80425;SDS011;69766;51.476;5.704;2023-11-21T08:37:01;60.92;;;25.92;;
80425;SDS011;69766;51.476;5.704;2023-11-21T08:39:30;61.40;;;24.85;;
80425;SDS011;69766;51.476;5.704;2023-11-21T08:41:59;58.75;;;23.90;;
80425;SDS011;69766;51.476;5.704;2023-11-21T08:44:27;58.35;;;23.95;;
80425;SDS011;69766;51.476;5.704;2023-11-21T08:46:53;53.72;;;23.67;;
80425;SDS011;69766;51.476;5.704;2023-11-21T08:49:19;54.72;;;23.23;;
80425;SDS011;69766;51.476;5.704;2023-11-21T08:51:51;58.92;;;23.05;;
80425;SDS011;69766;51.476;5.704;2023-11-21T08:54:35;50.22;;;21.95;;
80425;SDS011;69766;51.476;5.704;2023-11-21T08:57:10;55.08;;;23.83;;
80425;SDS011;69766;51.476;5.704;2023-11-21T08:59:38;59.40;;;22.95;;
80425;SDS011;69766;51.476;5.704;2023-11-21T09:02:34;53.35;;;22.77;;
80425;SDS011;69766;51.476;5.704;2023-11-21T09:05:11;55.25;;;25.02;;
80425;SDS011;69766;51.476;5.704;2023-11-21T09:07:39;51.25;;;22.30;;
80425;SDS011;69766;51.476;5.704;2023-11-21T09:10:11;49.53;;;21.23;;
80425;SDS011;69766;51.476;5.704;2023-11-21T09:12:42;51.20;;;21.42;;
80425;SDS011;69766;51.476;5.704;2023-11-21T09:15:08;53.50;;;22.58;;
80425;SDS011;69766;51.476;5.704;2023-11-21T09:17:38;51.63;;;22.25;;
80425;SDS011;69766;51.476;5.704;2023-11-21T09:20:04;53.58;;;22.48;;
80425;SDS011;69766;51.476;5.704;2023-11-21T09:22:31;46.47;;;20.60;;
80425;SDS011;69766;51.476;5.704;2023-11-21T09:24:57;46.92;;;21.48;;
80425;SDS011;69766;51.476;5.704;2023-11-21T09:27:23;49.22;;;22.05;;
80425;SDS011;69766;51.476;5.704;2023-11-21T09:29:50;48.42;;;21.77;;
80425;SDS011;69766;51.476;5.704;2023-11-21T09:32:18;51.20;;;22.27;;
80425;SDS011;69766;51.476;5.704;2023-11-21T09:34:46;48.58;;;20.58;;
80425;SDS011;69766;51.476;5.704;2023-11-21T09:37:13;49.42;;;20.58;;
80425;SDS011;69766;51.476;5.704;2023-11-21T09:39:39;45.72;;;21.30;;
80425;SDS011;69766;51.476;5.704;2023-11-21T09:42:13;52.78;;;21.33;;
80425;SDS011;69766;51.476;5.704;2023-11-21T09:45:03;47.50;;;21.75;;
80425;SDS011;69766;51.476;5.704;2023-11-21T09:47:38;49.15;;;21.13;;
80425;SDS011;69766;51.476;5.704;2023-11-21T09:50:07;49.40;;;20.17;;
80425;SDS011;69766;51.476;5.704;2023-11-21T09:52:55;52.10;;;20.98;;
80425;SDS011;69766;51.476;5.704;2023-11-21T09:55:35;40.63;;;20.17;;
80425;SDS011;69766;51.476;5.704;2023-11-21T09:58:03;44.17;;;19.00;;
80425;SDS011;69766;51.476;5.704;2023-11-21T10:00:32;47.33;;;19.58;;
80425;SDS011;69766;51.476;5.704;2023-11-21T10:02:59;49.08;;;20.13;;
80425;SDS011;69766;51.476;5.704;2023-11-21T10:05:25;46.65;;;19.70;;
80425;SDS011;69766;51.476;5.704;2023-11-21T10:07:51;47.22;;;21.33;;
80425;SDS011;69766;51.476;5.704;2023-11-21T10:10:19;47.33;;;20.75;;
80425;SDS011;69766;51.476;5.704;2023-11-21T10:12:48;48.83;;;20.92;;
80425;SDS011;69766;51.476;5.704;2023-11-21T10:15:25;48.75;;;21.17;;
80425;SDS011;69766;51.476;5.704;2023-11-21T10:17:52;47.58;;;21.00;;
80425;SDS011;69766;51.476;5.704;2023-11-21T10:20:20;49.58;;;20.40;;
80425;SDS011;69766;51.476;5.704;2023-11-21T10:22:47;50.55;;;21.45;;
80425;SDS011;69766;51.476;5.704;2023-11-21T10:25:13;51.28;;;20.95;;
80425;SDS011;69766;51.476;5.704;2023-11-21T10:27:40;55.88;;;22.42;;
80425;SDS011;69766;51.476;5.704;2023-11-21T10:30:07;55.97;;;22.58;;
80425;SDS011;69766;51.476;5.704;2023-11-21T10:32:41;55.58;;;22.95;;
80425;SDS011;69766;51.476;5.704;2023-11-21T10:35:10;57.22;;;23.40;;
80425;SDS011;69766;51.476;5.704;2023-11-21T10:37:36;59.75;;;23.08;;
80425;SDS011;69766;51.476;5.704;2023-11-21T10:40:08;59.63;;;22.98;;
80425;SDS011;69766;51.476;5.704;2023-11-21T10:42:37;58.58;;;23.63;;
80425;SDS011;69766;51.476;5.704;2023-11-21T10:45:04;60.05;;;24.85;;
80425;SDS011;69766;51.476;5.704;2023-11-21T10:47:43;56.95;;;24.00;;
80425;SDS011;69766;51.476;5.704;2023-11-21T10:50:09;63.00;;;23.70;;
80425;SDS011;69766;51.476;5.704;2023-11-21T10:52:40;66.70;;;26.30;;
80425;SDS011;69766;51.476;5.704;2023-11-21T10:55:18;59.13;;;24.95;;
80425;SDS011;69766;51.476;5.704;2023-11-21T10:57:55;64.90;;;25.30;;
80425;SDS011;69766;51.476;5.704;2023-11-21T11:00:28;68.30;;;27.40;;
80425;SDS011;69766;51.476;5.704;2023-11-21T11:02:55;61.33;;;25.15;;
80425;SDS011;69766;51.476;5.704;2023-11-21T11:05:30;55.60;;;25.73;;
80425;SDS011;69766;51.476;5.704;2023-11-21T11:08:07;62.80;;;25.85;;
80425;SDS011;69766;51.476;5.704;2023-11-21T11:10:39;60.45;;;25.45;;
80425;SDS011;69766;51.476;5.704;2023-11-21T11:13:06;70.35;;;26.95;;
80425;SDS011;69766;51.476;5.704;2023-11-21T11:15:32;66.65;;;26.23;;
80425;SDS011;69766;51.476;5.704;2023-11-21T11:17:58;64.70;;;26.23;;
80425;SDS011;69766;51.476;5.704;2023-11-21T11:20:33;57.20;;;23.85;;
80425;SDS011;69766;51.476;5.704;2023-11-21T11:29:14;65.07;;;24.92;;
80425;SDS011;69766;51.476;5.704;2023-11-21T11:35:10;63.92;;;25.25;;
80425;SDS011;69766;51.476;5.704;2023-11-21T11:37:50;57.78;;;25.00;;
80425;SDS011;69766;51.476;5.704;2023-11-21T11:40:25;69.13;;;26.35;;
80425;SDS011;69766;51.476;5.704;2023-11-21T11:43:13;61.65;;;25.23;;
80425;SDS011;69766;51.476;5.704;2023-11-21T11:46:10;59.80;;;24.05;;
80425;SDS011;69766;51.476;5.704;2023-11-21T11:48:40;62.75;;;25.55;;
80425;SDS011;69766;51.476;5.704;2023-11-21T11:51:07;58.90;;;24.98;;
80425;SDS011;69766;51.476;5.704;2023-11-21T11:53:53;61.33;;;23.88;;
80425;SDS011;69766;51.476;5.704;2023-11-21T11:58:54;58.95;;;25.48;;
80425;SDS011;69766;51.476;5.704;2023-11-21T12:01:22;54.53;;;24.25;;
80425;SDS011;69766;51.476;5.704;2023-11-21T12:06:42;56.17;;;22.80;;
80425;SDS011;69766;51.476;5.704;2023-11-21T12:09:20;51.75;;;22.02;;
80425;SDS011;69766;51.476;5.704;2023-11-21T12:11:51;55.50;;;21.90;;
80425;SDS011;69766;51.476;5.704;2023-11-21T12:14:17;48.92;;;21.23;;
80425;SDS011;69766;51.476;5.704;2023-11-21T12:16:46;56.28;;;22.92;;
80425;SDS011;69766;51.476;5.704;2023-11-21T12:19:13;49.50;;;22.77;;
80425;SDS011;69766;51.476;5.704;2023-11-21T12:21:39;53.13;;;22.33;;
80425;SDS011;69766;51.476;5.704;2023-11-21T12:24:06;60.35;;;23.63;;
80425;SDS011;69766;51.476;5.704;2023-11-21T12:26:38;49.47;;;23.58;;
80425;SDS011;69766;51.476;5.704;2023-11-21T12:29:18;54.97;;;22.02;;
80425;SDS011;69766;51.476;5.704;2023-11-21T12:31:44;58.72;;;23.52;;
80425;SDS011;69766;51.476;5.704;2023-11-21T12:34:11;50.95;;;22.73;;
80425;SDS011;69766;51.476;5.704;2023-11-21T12:36:39;65.95;;;23.38;;
80425;SDS011;69766;51.476;5.704;2023-11-21T12:39:05;57.28;;;24.08;;
80425;SDS011;69766;51.476;5.704;2023-11-21T12:41:34;53.85;;;22.85;;
80425;SDS011;69766;51.476;5.704;2023-11-21T12:44:00;60.67;;;24.35;;
80425;SDS011;69766;51.476;5.704;2023-11-21T12:46:25;65.18;;;25.52;;
80425;SDS011;69766;51.476;5.704;2023-11-21T12:49:04;64.40;;;25.33;;
80425;SDS011;69766;51.476;5.704;2023-11-21T12:51:38;63.88;;;27.33;;
80425;SDS011;69766;51.476;5.704;2023-11-21T12:54:05;69.45;;;26.70;;
80425;SDS011;69766;51.476;5.704;2023-11-21T12:56:31;69.65;;;27.08;;
80425;SDS011;69766;51.476;5.704;2023-11-21T12:58:57;65.32;;;27.48;;
80425;SDS011;69766;51.476;5.704;2023-11-21T13:01:34;60.60;;;25.58;;
80425;SDS011;69766;51.476;5.704;2023-11-21T13:04:02;65.13;;;25.70;;
80425;SDS011;69766;51.476;5.704;2023-11-21T13:06:29;59.40;;;25.95;;
80425;SDS011;69766;51.476;5.704;2023-11-21T13:08:59;71.00;;;27.53;;
80425;SDS011;69766;51.476;5.704;2023-11-21T13:11:33;58.90;;;25.30;;
80425;SDS011;69766;51.476;5.704;2023-11-21T13:14:06;55.80;;;25.15;;
80425;SDS011;69766;51.476;5.704;2023-11-21T13:16:32;61.47;;;25.08;;
80425;SDS011;69766;51.476;5.704;2023-11-21T13:18:58;65.03;;;27.52;;
80425;SDS011;69766;51.476;5.704;2023-11-21T13:21:24;63.83;;;27.38;;
80425;SDS011;69766;51.476;5.704;2023-11-21T13:23:49;65.18;;;25.27;;
80425;SDS011;69766;51.476;5.704;2023-11-21T13:26:17;60.65;;;26.05;;
80425;SDS011;69766;51.476;5.704;2023-11-21T13:28:45;56.35;;;24.92;;
80425;SDS011;69766;51.476;5.704;2023-11-21T13:31:12;61.42;;;25.38;;
80425;SDS011;69766;51.476;5.704;2023-11-21T13:33:47;55.88;;;23.15;;
80425;SDS011;69766;51.476;5.704;2023-11-21T13:36:20;59.00;;;24.95;;
80425;SDS011;69766;51.476;5.704;2023-11-21T13:38:52;60.17;;;25.70;;
80425;SDS011;69766;51.476;5.704;2023-11-21T13:41:29;59.40;;;23.00;;
80425;SDS011;69766;51.476;5.704;2023-11-21T13:43:56;59.78;;;24.73;;
80425;SDS011;69766;51.476;5.704;2023-11-21T13:46:42;69.10;;;24.95;;
80425;SDS011;69766;51.476;5.704;2023-11-21T13:49:08;68.60;;;26.67;;
80425;SDS011;69766;51.476;5.704;2023-11-21T13:51:35;69.32;;;27.30;;
80425;SDS011;69766;51.476;5.704;2023-11-21T13:54:09;82.35;;;28.50;;
80425;SDS011;69766;51.476;5.704;2023-11-21T13:56:35;74.63;;;27.48;;
80425;SDS011;69766;51.476;5.704;2023-11-21T13:59:02;80.30;;;29.00;;
80425;SDS011;69766;51.476;5.704;2023-11-21T14:01:48;72.57;;;26.92;;
80425;SDS011;69766;51.476;5.704;2023-11-21T14:04:21;80.80;;;27.80;;
80425;SDS011;69766;51.476;5.704;2023-11-21T14:07:06;77.03;;;28.25;;
80425;SDS011;69766;51.476;5.704;2023-11-21T14:09:51;79.20;;;26.52;;
80425;SDS011;69766;51.476;5.704;2023-11-21T14:12:17;82.85;;;28.83;;
80425;SDS011;69766;51.476;5.704;2023-11-21T14:14:46;75.43;;;27.80;;
80425;SDS011;69766;51.476;5.704;2023-11-21T14:17:14;80.93;;;27.70;;
80425;SDS011;69766;51.476;5.704;2023-11-21T14:19:49;70.38;;;26.95;;
80425;SDS011;69766;51.476;5.704;2023-11-21T14:22:18;76.70;;;27.42;;
80425;SDS011;69766;51.476;5.704;2023-11-21T14:24:49;73.20;;;25.20;;
80425;SDS011;69766;51.476;5.704;2023-11-21T14:27:22;69.88;;;26.25;;
80425;SDS011;69766;51.476;5.704;2023-11-21T14:29:54;68.95;;;25.23;;
80425;SDS011;69766;51.476;5.704;2023-11-21T14:32:25;60.22;;;22.70;;
80425;SDS011;69766;51.476;5.704;2023-11-21T14:34:51;67.40;;;23.65;;
80425;SDS011;69766;51.476;5.704;2023-11-21T14:37:17;63.95;;;23.38;;
80425;SDS011;69766;51.476;5.704;2023-11-21T14:39:45;59.67;;;23.92;;
80425;SDS011;69766;51.476;5.704;2023-11-21T14:42:14;66.60;;;25.13;;
80425;SDS011;69766;51.476;5.704;2023-11-21T14:44:40;57.47;;;22.05;;
80425;SDS011;69766;51.476;5.704;2023-11-21T14:47:10;55.17;;;21.85;;
80425;SDS011;69766;51.476;5.704;2023-11-21T14:49:48;55.65;;;23.63;;
80425;SDS011;69766;51.476;5.704;2023-11-21T14:52:23;54.58;;;21.63;;
80425;SDS011;69766;51.476;5.704;2023-11-21T14:55:02;49.45;;;20.52;;
80425;SDS011;69766;51.476;5.704;2023-11-21T14:58:03;57.47;;;22.15;;
80425;SDS011;69766;51.476;5.704;2023-11-21T15:00:35;50.58;;;20.05;;
80425;SDS011;69766;51.476;5.704;2023-11-21T15:03:23;44.40;;;16.83;;
80425;SDS011;69766;51.476;5.704;2023-11-21T15:05:56;45.30;;;18.55;;
80425;SDS011;69766;51.476;5.704;2023-11-21T15:08:43;46.95;;;17.02;;